createdAt,value
2018-12-06T05:00:52.800Z,7.80
2018-12-06T05:01:52.665Z,12.50
2018-12-06T05:03:45.328Z,12.10
2018-12-06T05:04:45.210Z,11.80
2018-12-06T05:06:37.910Z,12.10
2018-12-06T05:07:37.779Z,12.20
2018-12-06T05:09:30.442Z,11.80
2018-12-06T05:10:30.334Z,12.70
2018-12-06T05:12:23.017Z,11.70
2018-12-06T05:13:22.886Z,12.20
2018-12-06T05:15:15.551Z,12.50
2018-12-06T05:16:15.435Z,11.80
2018-12-06T05:18:08.130Z,12.00
2018-12-06T05:19:07.992Z,12.60
2018-12-06T05:21:00.657Z,12.40
2018-12-06T05:22:00.557Z,12.50
2018-12-06T05:23:53.239Z,12.70
2018-12-06T05:24:53.106Z,12.50
2018-12-06T05:26:45.768Z,12.50
2018-12-06T05:27:45.659Z,12.50
2018-12-06T05:29:38.351Z,13.40
2018-12-06T05:30:38.216Z,11.90
2018-12-06T05:32:30.874Z,13.30
2018-12-06T05:33:30.768Z,13.60
2018-12-06T05:35:23.457Z,14.10
2018-12-06T05:36:23.322Z,13.10
2018-12-06T05:38:15.983Z,13.20
2018-12-06T05:39:15.870Z,13.70
2018-12-06T05:41:08.551Z,13.20
2018-12-06T05:42:08.419Z,13.20
2018-12-06T05:44:01.084Z,13.40
2018-12-06T05:45:00.974Z,14.40
2018-12-06T05:46:53.652Z,13.40
2018-12-06T05:47:53.524Z,14.00
2018-12-06T05:49:46.188Z,13.70
2018-12-06T05:50:46.079Z,14.00
2018-12-06T05:52:38.760Z,13.80
2018-12-06T05:53:38.632Z,14.50
2018-12-06T05:55:31.301Z,14.00
2018-12-06T05:56:31.184Z,13.50
2018-12-06T05:58:23.872Z,14.50
2018-12-06T05:59:23.737Z,13.80
2018-12-06T06:01:16.400Z,14.30
2018-12-06T06:02:16.292Z,15.10
2018-12-06T06:04:08.975Z,14.60
2018-12-06T06:05:08.841Z,14.40
2018-12-06T06:07:01.502Z,14.50
2018-12-06T06:08:01.396Z,14.50
2018-12-06T06:09:54.077Z,15.00
2018-12-06T06:10:53.942Z,13.70
2018-12-06T06:12:46.609Z,13.70
2018-12-06T06:13:46.494Z,14.50
2018-12-06T06:15:39.184Z,13.60
2018-12-06T06:16:39.046Z,13.80
2018-12-06T06:18:31.719Z,14.30
2018-12-06T06:19:31.609Z,14.30
2018-12-06T06:21:24.298Z,15.30
2018-12-06T06:22:24.167Z,14.20
2018-12-06T06:24:16.829Z,14.00
2018-12-06T06:25:16.723Z,15.00
2018-12-06T06:27:09.403Z,14.50
2018-12-06T06:28:09.273Z,14.30
2018-12-06T06:30:01.928Z,14.70
2018-12-06T06:31:01.826Z,14.60
2018-12-06T06:32:54.503Z,14.60
2018-12-06T06:33:54.374Z,14.60
2018-12-06T06:35:47.035Z,14.30
2018-12-06T06:36:46.926Z,14.50
2018-12-06T06:38:39.616Z,14.50
2018-12-06T06:39:39.476Z,14.30
2018-12-06T06:41:32.138Z,15.80
2018-12-06T06:42:32.021Z,15.40
2018-12-06T06:44:24.702Z,15.10
2018-12-06T06:45:24.575Z,15.60
2018-12-06T06:47:17.237Z,15.00
2018-12-06T06:48:17.121Z,15.40
2018-12-06T06:50:09.810Z,14.70
2018-12-06T06:51:09.675Z,15.00
2018-12-06T06:53:02.335Z,14.60
2018-12-06T06:54:02.225Z,15.00
2018-12-06T06:55:54.912Z,14.50
2018-12-06T06:56:54.779Z,14.40
2018-12-06T06:58:47.440Z,14.20
2018-12-06T06:59:47.332Z,14.60
2018-12-06T07:01:40.014Z,14.70
2018-12-06T07:02:39.883Z,14.70
2018-12-06T07:04:32.543Z,13.90
2018-12-06T07:05:32.437Z,13.60
2018-12-06T07:07:25.115Z,13.60
2018-12-06T07:08:24.987Z,14.20
2018-12-06T07:10:17.644Z,14.40
2018-12-06T07:11:17.536Z,14.20
2018-12-06T07:13:10.223Z,14.70
2018-12-06T07:14:10.091Z,14.70
2018-12-06T07:16:02.756Z,14.20
2018-12-06T07:17:04.113Z,14.10
2018-12-06T07:18:55.316Z,14.30
2018-12-06T07:19:55.190Z,14.30
2018-12-06T07:21:47.858Z,15.40
2018-12-06T07:22:47.747Z,14.50
2018-12-06T07:24:40.427Z,14.70
2018-12-06T07:25:46.335Z,14.20
2018-12-06T07:27:32.965Z,15.10
2018-12-06T07:28:32.854Z,14.50
2018-12-06T07:30:25.546Z,14.40
2018-12-06T07:31:25.406Z,15.40
2018-12-06T07:33:18.074Z,15.60
2018-12-06T07:34:17.959Z,15.70
2018-12-06T07:36:10.644Z,15.70
2018-12-06T07:37:10.510Z,16.20
2018-12-06T07:39:03.175Z,16.20
2018-12-06T07:40:03.062Z,14.90
2018-12-06T07:41:55.751Z,15.90
2018-12-06T07:42:55.619Z,16.00
2018-12-06T07:44:48.290Z,16.80
2018-12-06T07:45:48.167Z,15.60
2018-12-06T07:47:40.853Z,16.50
2018-12-06T07:48:40.732Z,15.50
2018-12-06T07:50:33.390Z,16.20
2018-12-06T07:51:33.287Z,16.40
2018-12-06T07:53:25.967Z,16.60
2018-12-06T07:54:25.835Z,16.20
2018-12-06T07:56:18.499Z,16.00
2018-12-06T07:57:18.385Z,16.30
2018-12-06T07:59:11.068Z,16.50
2018-12-06T08:00:10.934Z,16.90
2018-12-06T08:02:03.598Z,16.30
2018-12-06T08:03:03.490Z,16.20
2018-12-06T08:04:56.261Z,16.90
2018-12-06T08:05:56.125Z,17.60
2018-12-06T08:07:48.785Z,16.80
2018-12-06T08:08:48.673Z,17.30
2018-12-06T08:10:41.367Z,17.40
2018-12-06T08:11:41.226Z,17.30
2018-12-06T08:13:33.893Z,17.70
2018-12-06T08:14:33.785Z,17.50
2018-12-06T08:16:26.469Z,17.60
2018-12-06T08:17:26.333Z,18.20
2018-12-06T08:19:19.010Z,18.40
2018-12-06T08:20:18.887Z,17.70
2018-12-06T08:22:11.583Z,17.70
2018-12-06T08:23:11.453Z,17.80
2018-12-06T08:25:04.115Z,16.80
2018-12-06T08:26:04.006Z,16.60
2018-12-06T08:27:56.699Z,18.00
2018-12-06T08:28:56.561Z,18.20
2018-12-06T08:30:49.227Z,17.20
2018-12-06T08:31:49.117Z,17.10
2018-12-06T08:33:41.807Z,17.20
2018-12-06T08:34:41.684Z,18.00
2018-12-06T08:36:34.336Z,17.90
2018-12-06T08:37:34.223Z,17.70
2018-12-06T08:39:26.910Z,18.40
2018-12-06T08:40:26.772Z,18.30
2018-12-06T08:42:19.436Z,17.90
2018-12-06T08:43:19.331Z,18.80
2018-12-06T08:45:12.055Z,18.70
2018-12-06T08:46:11.878Z,19.40
2018-12-06T08:48:04.548Z,19.50
2018-12-06T08:49:04.431Z,19.60
2018-12-06T08:50:57.116Z,20.40
2018-12-06T08:51:56.991Z,20.80
2018-12-06T08:53:49.654Z,21.20
2018-12-06T08:54:49.543Z,21.70
2018-12-06T08:56:42.245Z,21.10
2018-12-06T08:57:42.097Z,21.60
2018-12-06T08:59:34.761Z,22.30
2018-12-06T09:00:34.646Z,23.00
2018-12-06T09:02:27.340Z,21.60
2018-12-06T09:03:27.202Z,22.80
2018-12-06T09:05:19.866Z,23.50
2018-12-06T09:06:19.757Z,23.20
2018-12-06T09:08:12.450Z,22.20
2018-12-06T09:09:12.314Z,22.80
2018-12-06T09:11:04.982Z,24.20
2018-12-06T09:12:04.872Z,22.50
2018-12-06T09:13:57.558Z,24.10
2018-12-06T09:14:57.429Z,24.50
2018-12-06T09:16:50.094Z,24.10
2018-12-06T09:17:49.982Z,23.30
2018-12-06T09:19:42.668Z,23.40
2018-12-06T09:20:42.531Z,24.80
2018-12-06T09:22:35.208Z,24.20
2018-12-06T09:23:35.090Z,25.20
2018-12-06T09:25:27.775Z,24.20
2018-12-06T09:26:27.654Z,25.10
2018-12-06T09:28:20.324Z,26.00
2018-12-06T09:29:20.215Z,26.00
2018-12-06T09:31:12.903Z,25.20
2018-12-06T09:32:12.769Z,24.90
2018-12-06T09:34:05.455Z,25.50
2018-12-06T09:35:05.328Z,26.20
2018-12-06T09:36:58.017Z,24.60
2018-12-06T09:37:57.878Z,24.50
2018-12-06T09:39:50.548Z,25.20
2018-12-06T09:40:50.433Z,25.60
2018-12-06T09:42:43.120Z,24.30
2018-12-06T09:43:42.993Z,22.70
2018-12-06T09:45:35.656Z,24.30
2018-12-06T09:46:35.540Z,24.10
2018-12-06T09:48:28.231Z,25.30
2018-12-06T09:49:28.098Z,25.30
2018-12-06T09:51:20.770Z,25.30
2018-12-06T09:52:20.659Z,25.80
2018-12-06T09:54:13.345Z,24.70
2018-12-06T09:55:13.209Z,24.50
2018-12-06T09:57:05.884Z,23.20
2018-12-06T09:58:05.775Z,22.60
2018-12-06T09:59:58.447Z,22.40
2018-12-06T10:00:58.326Z,22.30
2018-12-06T10:02:50.986Z,22.70
2018-12-06T10:03:50.875Z,22.80
2018-12-06T10:05:43.576Z,21.50
2018-12-06T10:06:43.442Z,22.00
2018-12-06T10:08:36.107Z,21.10
2018-12-06T10:09:35.997Z,21.50
2018-12-06T10:11:28.687Z,20.30
2018-12-06T10:12:28.560Z,20.90
2018-12-06T10:14:21.222Z,20.70
2018-12-06T10:15:21.108Z,19.40
2018-12-06T10:17:13.805Z,20.50
2018-12-06T10:18:13.669Z,21.50
2018-12-06T10:20:06.817Z,21.40
2018-12-06T10:21:06.231Z,21.80
2018-12-06T10:22:58.915Z,22.50
2018-12-06T10:23:58.788Z,21.90
2018-12-06T10:25:51.449Z,23.90
2018-12-06T10:26:51.341Z,24.70
2018-12-06T10:28:44.033Z,23.90
2018-12-06T10:29:43.896Z,25.00
2018-12-06T10:31:36.565Z,25.30
2018-12-06T10:32:36.458Z,25.80
2018-12-06T10:34:29.305Z,28.00
2018-12-06T10:35:29.010Z,27.60
2018-12-06T10:37:21.681Z,27.90
2018-12-06T10:38:21.568Z,27.90
2018-12-06T10:40:14.259Z,27.80
2018-12-06T10:41:14.129Z,27.10
2018-12-06T10:43:06.793Z,27.40
2018-12-06T10:44:06.688Z,26.80
2018-12-06T10:45:59.377Z,26.90
2018-12-06T10:46:59.240Z,27.90
2018-12-06T10:48:51.909Z,27.50
2018-12-06T10:49:51.794Z,26.50
2018-12-06T10:51:44.482Z,26.40
2018-12-06T10:52:44.356Z,25.60
2018-12-06T10:54:37.020Z,25.40
2018-12-06T10:55:36.905Z,27.00
2018-12-06T10:57:29.605Z,27.00
2018-12-06T10:58:29.465Z,25.30
2018-12-06T11:00:22.140Z,26.10
2018-12-06T11:01:22.021Z,25.80
2018-12-06T11:03:14.721Z,24.90
2018-12-06T11:04:14.585Z,25.50
2018-12-06T11:06:07.247Z,26.40
2018-12-06T11:07:07.141Z,26.20
2018-12-06T11:08:59.827Z,26.30
2018-12-06T11:09:59.698Z,27.70
2018-12-06T11:11:52.362Z,26.70
2018-12-06T11:12:52.251Z,26.40
2018-12-06T11:14:44.943Z,26.30
2018-12-06T11:15:44.806Z,26.80
2018-12-06T11:17:37.473Z,26.80
2018-12-06T11:18:37.366Z,27.90
2018-12-06T11:20:30.051Z,28.10
2018-12-06T11:21:29.919Z,28.40
2018-12-06T11:23:22.583Z,27.80
2018-12-06T11:24:22.472Z,28.10
2018-12-06T11:26:15.161Z,27.10
2018-12-06T11:27:15.033Z,27.80
2018-12-06T11:29:07.694Z,26.50
2018-12-06T11:30:07.587Z,27.30
2018-12-06T11:32:00.277Z,27.40
2018-12-06T11:33:00.147Z,26.70
2018-12-06T11:34:52.816Z,26.30
2018-12-06T11:35:52.705Z,27.10
2018-12-06T11:37:45.388Z,27.40
2018-12-06T11:38:45.260Z,28.10
2018-12-06T11:40:37.925Z,27.20
2018-12-06T11:41:43.024Z,27.00
2018-12-06T11:43:30.510Z,26.60
2018-12-06T11:44:30.375Z,27.10
2018-12-06T11:46:23.037Z,24.70
2018-12-06T11:47:22.927Z,25.50
2018-12-06T11:49:15.621Z,25.80
2018-12-06T11:50:15.489Z,25.10
2018-12-06T11:52:08.234Z,26.20
2018-12-06T11:53:08.180Z,25.70
2018-12-06T11:55:00.816Z,24.90
2018-12-06T11:56:00.685Z,25.30
2018-12-06T11:57:53.350Z,24.20
2018-12-06T11:58:53.237Z,23.90
2018-12-06T12:00:45.940Z,23.90
2018-12-06T12:01:45.803Z,24.10
2018-12-06T12:03:38.472Z,23.10
2018-12-06T12:04:38.364Z,24.30
2018-12-06T12:06:31.049Z,22.60
2018-12-06T12:07:30.919Z,23.80
2018-12-06T12:09:23.584Z,22.80
2018-12-06T12:10:23.477Z,22.30
2018-12-06T12:12:16.169Z,22.30
2018-12-06T12:13:16.036Z,21.40
2018-12-06T12:15:08.704Z,21.30
2018-12-06T12:16:08.591Z,20.70
2018-12-06T12:18:01.285Z,20.90
2018-12-06T12:19:01.159Z,20.60
2018-12-06T12:20:53.822Z,20.20
2018-12-06T12:21:53.713Z,20.30
2018-12-06T12:23:46.405Z,19.60
2018-12-06T12:24:46.276Z,20.40
2018-12-06T12:26:38.940Z,19.20
2018-12-06T12:27:38.832Z,19.40
2018-12-06T12:29:31.514Z,19.90
2018-12-06T12:30:31.395Z,19.20
2018-12-06T12:32:24.062Z,19.70
2018-12-06T12:33:23.949Z,18.20
2018-12-06T12:35:16.643Z,18.00
2018-12-06T12:36:16.509Z,17.80
2018-12-06T12:38:09.174Z,16.90
2018-12-06T12:39:09.073Z,16.50
2018-12-06T12:41:01.755Z,15.40
2018-12-06T12:42:01.633Z,16.50
2018-12-06T12:43:54.300Z,14.80
2018-12-06T12:44:54.188Z,15.10
2018-12-06T12:46:46.882Z,13.50
2018-12-06T12:47:46.745Z,14.30
2018-12-06T12:49:39.417Z,14.80
2018-12-06T12:50:39.303Z,15.60
2018-12-06T12:52:31.993Z,15.10
2018-12-06T12:53:31.869Z,15.10
2018-12-06T12:55:24.528Z,15.50
2018-12-06T12:56:24.421Z,14.40
2018-12-06T12:58:17.112Z,14.30
2018-12-06T12:59:16.981Z,14.30
2018-12-06T13:01:09.652Z,14.90
2018-12-06T13:02:09.537Z,13.80
2018-12-06T13:04:02.226Z,13.60
2018-12-06T13:05:02.096Z,13.50
2018-12-06T13:06:54.772Z,13.30
2018-12-06T13:07:54.660Z,13.40
2018-12-06T13:09:47.344Z,13.70
2018-12-06T13:10:47.216Z,14.20
2018-12-06T13:12:39.885Z,13.20
2018-12-06T13:13:39.773Z,13.80
2018-12-06T13:15:32.464Z,13.70
2018-12-06T13:16:32.332Z,13.60
2018-12-06T13:18:25.004Z,14.10
2018-12-06T13:19:24.890Z,14.40
2018-12-06T13:21:17.585Z,15.00
2018-12-06T13:22:17.450Z,15.90
2018-12-06T13:24:10.120Z,15.00
2018-12-06T13:25:10.013Z,14.30
2018-12-06T13:27:02.743Z,15.30
2018-12-06T13:28:02.573Z,15.00
2018-12-06T13:29:55.240Z,14.30
2018-12-06T13:30:55.128Z,15.00
2018-12-06T13:32:47.822Z,15.40
2018-12-06T13:33:47.693Z,15.00
2018-12-06T13:35:40.360Z,15.30
2018-12-06T13:36:40.247Z,15.20
2018-12-06T13:38:32.943Z,16.00
2018-12-06T13:39:32.805Z,15.90
2018-12-06T13:41:25.480Z,15.90
2018-12-06T13:42:25.366Z,15.40
2018-12-06T13:44:18.062Z,15.60
2018-12-06T13:45:17.933Z,16.10
2018-12-06T13:47:10.600Z,15.30
2018-12-06T13:48:10.490Z,15.60
2018-12-06T13:50:03.180Z,15.60
2018-12-06T13:51:03.044Z,16.00
2018-12-06T13:52:55.716Z,15.90
2018-12-06T13:53:55.607Z,15.50
2018-12-06T13:55:48.292Z,15.30
2018-12-06T13:56:48.158Z,16.10
2018-12-06T13:58:40.826Z,16.10
2018-12-06T13:59:40.712Z,15.90
2018-12-06T14:01:33.404Z,15.00
2018-12-06T14:02:33.343Z,16.00
2018-12-06T14:04:25.941Z,16.80
2018-12-06T14:05:25.835Z,16.80
2018-12-06T14:07:18.525Z,17.10
2018-12-06T14:08:18.391Z,16.70
2018-12-06T14:10:11.063Z,17.40
2018-12-06T14:11:10.954Z,17.00
2018-12-06T14:13:03.648Z,17.10
2018-12-06T14:14:03.513Z,17.40
2018-12-06T14:15:56.181Z,18.40
2018-12-06T14:16:56.069Z,16.80
2018-12-06T14:18:48.764Z,18.40
2018-12-06T14:19:48.631Z,17.80
2018-12-06T14:21:41.302Z,18.60
2018-12-06T14:22:41.195Z,18.20
2018-12-06T14:24:33.888Z,18.50
2018-12-06T14:25:33.782Z,18.70
2018-12-06T14:27:26.428Z,17.90
2018-12-06T14:28:26.337Z,18.60
2018-12-06T14:30:19.003Z,18.50
2018-12-06T14:31:18.890Z,18.30
2018-12-06T14:33:11.545Z,18.90
2018-12-06T14:34:11.434Z,19.00
2018-12-06T14:36:04.119Z,18.60
2018-12-06T14:37:03.994Z,18.10
2018-12-06T14:38:56.665Z,17.20
2018-12-06T14:39:56.552Z,17.50
2018-12-06T14:41:49.238Z,17.60
2018-12-06T14:42:49.109Z,17.90
2018-12-06T14:44:41.781Z,16.50
2018-12-06T14:45:41.667Z,15.90
2018-12-06T14:47:34.370Z,16.20
2018-12-06T14:48:34.225Z,16.30
2018-12-06T14:50:26.902Z,16.10
2018-12-06T14:51:26.795Z,15.30
2018-12-06T14:53:19.485Z,15.20
2018-12-06T14:54:19.351Z,15.50
2018-12-06T14:56:12.018Z,15.00
2018-12-06T14:57:12.509Z,15.00
2018-12-06T14:59:04.597Z,14.80
2018-12-06T15:00:04.460Z,13.90
2018-12-06T15:01:57.136Z,13.50
2018-12-06T15:02:57.020Z,14.80
2018-12-06T15:04:49.718Z,13.90
2018-12-06T15:05:49.587Z,13.40
2018-12-06T15:07:42.259Z,14.00
2018-12-06T15:08:42.141Z,13.10
2018-12-06T15:10:34.838Z,13.10
2018-12-06T15:11:34.699Z,13.00
2018-12-06T15:13:27.373Z,13.20
2018-12-06T15:14:27.259Z,12.90
2018-12-06T15:16:19.941Z,12.10
2018-12-06T15:17:19.817Z,11.70
2018-12-06T15:19:12.767Z,11.40
2018-12-06T15:20:12.874Z,11.90
2018-12-06T15:22:05.142Z,11.60
2018-12-06T15:23:05.322Z,11.80
2018-12-06T15:24:57.666Z,12.00
2018-12-06T15:25:57.831Z,11.30
2018-12-06T15:27:50.243Z,11.30
2018-12-06T15:28:50.145Z,11.40
2018-12-06T15:30:42.785Z,11.10
2018-12-06T15:31:42.676Z,11.40
2018-12-06T15:33:35.372Z,10.70
2018-12-06T15:34:35.241Z,10.50
2018-12-06T15:36:27.908Z,10.00
2018-12-06T15:37:27.795Z,10.30
2018-12-06T15:39:20.485Z,10.10
2018-12-06T15:40:20.357Z,10.70
2018-12-06T15:42:13.022Z,10.20
2018-12-06T15:43:12.917Z,10.10
2018-12-06T15:45:05.598Z,9.60
2018-12-06T15:46:05.468Z,9.20
2018-12-06T15:47:58.139Z,10.60
2018-12-06T15:48:58.025Z,9.50
2018-12-06T15:50:50.710Z,9.70
2018-12-06T15:51:50.585Z,10.40
2018-12-06T15:53:43.246Z,9.40
2018-12-06T15:54:43.140Z,10.30
2018-12-06T15:56:35.832Z,10.50
2018-12-06T15:57:35.695Z,10.20
2018-12-06T15:59:29.372Z,10.00
2018-12-06T16:00:29.268Z,9.50
2018-12-06T16:02:21.951Z,10.20
2018-12-06T16:03:21.826Z,10.30
2018-12-06T16:05:14.581Z,10.50
2018-12-06T16:06:14.383Z,9.80
2018-12-06T16:08:07.073Z,10.50
2018-12-06T16:09:06.944Z,10.60
2018-12-06T16:10:59.610Z,12.00
2018-12-06T16:11:59.495Z,12.10
2018-12-06T16:13:52.187Z,10.90
2018-12-06T16:14:52.068Z,11.50
2018-12-06T16:16:44.724Z,10.30
2018-12-06T16:17:44.611Z,10.50
2018-12-06T16:19:37.555Z,11.40
2018-12-06T16:20:37.188Z,10.60
2018-12-06T16:22:29.907Z,10.80
2018-12-06T16:23:29.798Z,10.40
2018-12-06T16:25:22.493Z,12.00
2018-12-06T16:26:22.356Z,11.10
2018-12-06T16:28:15.024Z,11.40
2018-12-06T16:29:14.917Z,11.50
2018-12-06T16:31:07.603Z,11.20
2018-12-06T16:32:07.471Z,11.90
2018-12-06T16:34:00.136Z,11.50
2018-12-06T16:35:00.029Z,12.30
2018-12-06T16:36:52.709Z,11.20
2018-12-06T16:37:52.644Z,11.60
2018-12-06T16:39:45.250Z,11.50
2018-12-06T16:40:45.143Z,12.10
2018-12-06T16:42:37.830Z,12.50
2018-12-06T16:43:37.699Z,13.00
2018-12-06T16:45:30.364Z,12.20
2018-12-06T16:46:30.258Z,11.80
2018-12-06T16:48:22.947Z,11.90
2018-12-06T16:49:22.813Z,13.00
2018-12-06T16:51:15.481Z,12.60
2018-12-06T16:52:15.483Z,11.90
2018-12-06T16:54:08.068Z,12.00
2018-12-06T16:55:07.933Z,12.90
2018-12-06T16:57:00.609Z,29.60
2018-12-06T16:58:00.496Z,12.70
2018-12-06T16:59:53.191Z,13.10
2018-12-06T17:00:53.056Z,14.00
2018-12-06T17:02:45.726Z,12.30
2018-12-06T17:03:45.616Z,12.70
2018-12-06T17:05:38.395Z,13.10
2018-12-06T17:06:38.267Z,12.90
2018-12-06T17:08:30.936Z,12.90
2018-12-06T17:09:30.849Z,12.80
2018-12-06T17:11:23.511Z,12.70
2018-12-06T17:12:23.387Z,12.90
2018-12-06T17:14:16.054Z,12.20
2018-12-06T17:15:15.945Z,12.40
2018-12-06T17:17:08.631Z,12.40
2018-12-06T17:18:08.493Z,12.50
2018-12-06T17:20:01.175Z,13.00
2018-12-06T17:21:01.062Z,12.70
2018-12-06T17:22:53.749Z,12.80
2018-12-06T17:23:53.628Z,13.20
2018-12-06T17:25:46.296Z,13.40
2018-12-06T17:26:46.180Z,13.00
2018-12-06T17:28:38.876Z,13.60
2018-12-06T17:29:38.738Z,12.80
2018-12-06T17:31:31.413Z,12.80
2018-12-06T17:32:31.305Z,12.20
2018-12-06T17:34:24.006Z,12.70
2018-12-06T17:35:23.866Z,12.90
2018-12-06T17:37:16.536Z,13.00
2018-12-06T17:38:16.421Z,13.40
2018-12-06T17:40:09.117Z,13.10
2018-12-06T17:41:08.990Z,13.70
2018-12-06T17:43:01.652Z,13.30
2018-12-06T17:44:01.557Z,13.60
2018-12-06T17:45:54.234Z,13.40
2018-12-06T17:46:54.099Z,13.50
2018-12-06T17:48:46.813Z,12.90
2018-12-06T17:49:46.709Z,13.90
2018-12-06T17:51:39.399Z,14.10
2018-12-06T17:52:39.269Z,13.40
2018-12-06T17:54:31.937Z,13.60
2018-12-06T17:55:31.824Z,13.10
2018-12-06T17:57:24.512Z,14.20
2018-12-06T17:58:24.378Z,13.80
2018-12-06T18:00:17.055Z,14.40
2018-12-06T18:01:16.974Z,13.80
2018-12-06T18:03:09.637Z,13.90
2018-12-06T18:04:09.502Z,14.20
2018-12-06T18:06:02.170Z,14.30
2018-12-06T18:07:02.054Z,14.20
2018-12-06T18:08:54.748Z,14.10
2018-12-06T18:09:54.673Z,14.00
2018-12-06T18:11:47.284Z,14.90
2018-12-06T18:12:47.171Z,15.50
2018-12-06T18:14:39.861Z,15.10
2018-12-06T18:15:39.735Z,14.90
2018-12-06T18:17:32.401Z,14.20
2018-12-06T18:18:32.294Z,15.60
2018-12-06T18:20:24.978Z,15.70
2018-12-06T18:21:24.849Z,15.30
2018-12-06T18:23:17.518Z,15.90
2018-12-06T18:24:18.755Z,16.10
2018-12-06T18:26:10.091Z,16.10
2018-12-06T18:27:09.960Z,15.80
2018-12-06T18:29:02.626Z,16.30
2018-12-06T18:30:02.523Z,16.60
2018-12-06T18:31:55.202Z,16.40
2018-12-06T18:32:55.074Z,16.20
2018-12-06T18:34:47.740Z,17.20
2018-12-06T18:35:47.634Z,16.70
2018-12-06T18:37:40.318Z,16.20
2018-12-06T18:38:40.189Z,17.10
2018-12-06T18:40:32.854Z,16.20
2018-12-06T18:41:32.751Z,15.90
2018-12-06T18:43:25.433Z,16.70
2018-12-06T18:44:25.307Z,16.50
2018-12-06T18:46:17.979Z,17.00
2018-12-06T18:47:17.876Z,17.30
2018-12-06T18:49:10.551Z,16.70
2018-12-06T18:50:10.469Z,17.10
2018-12-06T18:52:03.096Z,16.60
2018-12-06T18:53:02.987Z,17.50
2018-12-06T18:54:55.673Z,17.00
2018-12-06T18:55:55.549Z,16.80
2018-12-06T18:57:48.219Z,17.30
2018-12-06T18:58:48.110Z,16.70
2018-12-06T19:00:40.836Z,17.70
2018-12-06T19:01:40.669Z,17.60
2018-12-06T19:03:33.330Z,17.90
2018-12-06T19:04:33.221Z,17.10
2018-12-06T19:06:25.914Z,17.20
2018-12-06T19:07:25.783Z,17.20
2018-12-06T19:09:18.447Z,16.60
2018-12-06T19:10:18.338Z,16.70
2018-12-06T19:12:11.030Z,19.40
2018-12-06T19:13:10.896Z,16.80
2018-12-06T19:15:03.567Z,17.30
2018-12-06T19:16:03.456Z,16.80
2018-12-06T19:17:56.158Z,16.90
2018-12-06T19:18:56.012Z,17.40
2018-12-06T19:20:48.686Z,16.90
2018-12-06T19:21:48.585Z,18.20
2018-12-06T19:23:41.264Z,17.30
2018-12-06T19:24:41.134Z,17.50
2018-12-06T19:26:33.806Z,17.20
2018-12-06T19:27:33.693Z,17.10
2018-12-06T19:29:26.384Z,18.30
2018-12-06T19:30:26.262Z,17.90
2018-12-06T19:32:18.925Z,17.00
2018-12-06T19:33:18.825Z,17.30
2018-12-06T19:35:11.518Z,17.20
2018-12-06T19:36:11.475Z,16.80
2018-12-06T19:38:04.051Z,17.00
2018-12-06T19:39:03.945Z,16.60
2018-12-06T19:40:56.635Z,16.60
2018-12-06T19:41:56.500Z,16.70
2018-12-06T19:43:49.165Z,16.70
2018-12-06T19:44:49.062Z,16.20
2018-12-06T19:46:41.746Z,16.40
2018-12-06T19:47:41.618Z,16.50
2018-12-06T19:49:34.281Z,17.10
2018-12-06T19:50:34.177Z,16.40
2018-12-06T19:52:26.852Z,15.90
2018-12-06T19:53:26.730Z,15.40
2018-12-06T19:55:19.426Z,15.30
2018-12-06T19:56:19.388Z,15.30
2018-12-06T19:58:11.983Z,15.80
2018-12-06T19:59:11.853Z,14.30
2018-12-06T20:01:04.525Z,15.40
2018-12-06T20:02:04.417Z,13.90
2018-12-06T20:03:57.110Z,14.20
2018-12-06T20:04:56.972Z,14.00
2018-12-06T20:06:49.645Z,14.30
2018-12-06T20:07:49.533Z,13.80
2018-12-06T20:09:42.227Z,13.70
2018-12-06T20:10:42.086Z,13.80
2018-12-06T20:12:35.235Z,13.70
2018-12-06T20:13:34.665Z,12.60
2018-12-06T20:15:27.574Z,14.00
2018-12-06T20:16:27.242Z,14.20
2018-12-06T20:18:19.913Z,14.20
2018-12-06T20:19:19.802Z,14.10
2018-12-06T20:21:12.494Z,14.00
2018-12-06T20:22:12.365Z,14.50
2018-12-06T20:24:05.523Z,14.80
2018-12-06T20:25:05.412Z,14.50
2018-12-06T20:26:58.094Z,14.60
2018-12-06T20:27:57.971Z,15.00
2018-12-06T20:29:50.638Z,15.20
2018-12-06T20:30:50.529Z,14.80
2018-12-06T20:32:43.222Z,15.20
2018-12-06T20:33:43.088Z,14.40
2018-12-06T20:35:35.775Z,15.40
2018-12-06T20:36:35.665Z,15.10
2018-12-06T20:38:28.351Z,15.90
2018-12-06T20:39:28.225Z,14.80
2018-12-06T20:41:20.889Z,15.40
2018-12-06T20:42:20.825Z,14.90
2018-12-06T20:44:13.500Z,16.10
2018-12-06T20:45:13.369Z,15.50
2018-12-06T20:47:06.054Z,15.50
2018-12-06T20:48:05.905Z,16.30
2018-12-06T20:49:59.683Z,15.10
2018-12-06T20:50:58.499Z,15.60
2018-12-06T20:52:51.230Z,16.20
2018-12-06T20:53:51.233Z,15.50
2018-12-06T20:55:43.812Z,15.10
2018-12-06T20:56:43.872Z,15.40
2018-12-06T20:58:36.348Z,15.10
2018-12-06T20:59:36.264Z,15.50
2018-12-06T21:01:28.932Z,15.20
2018-12-06T21:02:28.795Z,14.60
2018-12-06T21:04:21.542Z,16.50
2018-12-06T21:05:21.395Z,13.90
2018-12-06T21:07:14.139Z,14.50
2018-12-06T21:08:13.984Z,14.00
2018-12-06T21:10:08.241Z,14.00
2018-12-06T21:11:07.486Z,14.00
2018-12-06T21:13:00.184Z,13.80
2018-12-06T21:14:00.056Z,14.00
2018-12-06T21:15:52.741Z,13.40
2018-12-06T21:16:52.633Z,13.50
2018-12-06T21:18:45.435Z,13.40
2018-12-06T21:19:45.302Z,13.00
2018-12-06T21:21:37.965Z,12.80
2018-12-06T21:22:37.857Z,13.40
2018-12-06T21:24:30.552Z,13.60
2018-12-06T21:25:30.437Z,13.10
2018-12-06T21:27:23.087Z,12.90
2018-12-06T21:28:22.978Z,12.50
2018-12-06T21:30:15.707Z,13.60
2018-12-06T21:31:15.545Z,12.40
2018-12-06T21:33:08.212Z,13.00
2018-12-06T21:34:08.100Z,13.00
2018-12-06T21:36:00.795Z,12.70
2018-12-06T21:37:00.660Z,13.60
2018-12-06T21:38:53.328Z,12.70
2018-12-06T21:39:53.213Z,13.10
2018-12-06T21:41:45.911Z,12.60
2018-12-06T21:42:45.775Z,13.40
2018-12-06T21:44:38.443Z,13.00
2018-12-06T21:45:38.336Z,12.40
2018-12-06T21:47:31.027Z,11.70
2018-12-06T21:48:30.890Z,12.20
2018-12-06T21:50:23.563Z,13.30
2018-12-06T21:51:23.448Z,12.30
2018-12-06T21:53:16.142Z,12.90
2018-12-06T21:54:16.092Z,12.70
2018-12-06T21:56:08.682Z,12.50
2018-12-06T21:57:08.570Z,12.10
2018-12-06T21:59:01.263Z,12.90
2018-12-06T22:00:01.133Z,12.70
2018-12-06T22:01:53.808Z,12.00
2018-12-06T22:02:53.701Z,13.70
2018-12-06T22:04:46.385Z,13.00
2018-12-06T22:05:46.258Z,12.50
2018-12-06T22:07:38.926Z,12.50
2018-12-06T22:08:38.820Z,12.60
2018-12-06T22:10:32.012Z,12.60
2018-12-06T22:11:31.885Z,12.70
2018-12-06T22:13:24.559Z,12.60
2018-12-06T22:14:24.450Z,13.30
2018-12-06T22:16:17.141Z,12.50
2018-12-06T22:17:17.011Z,12.00
2018-12-06T22:19:09.677Z,12.70
2018-12-06T22:20:09.562Z,12.70
2018-12-06T22:22:02.259Z,12.70
2018-12-06T22:23:02.132Z,12.20
2018-12-06T22:24:54.794Z,12.90
2018-12-06T22:25:54.691Z,12.90
2018-12-06T22:27:47.378Z,12.60
2018-12-06T22:28:47.248Z,12.90
2018-12-06T22:30:39.917Z,12.70
2018-12-06T22:31:39.803Z,11.90
2018-12-06T22:33:32.484Z,11.90
2018-12-06T22:34:32.363Z,11.40
2018-12-06T22:36:25.026Z,11.50
2018-12-06T22:37:24.922Z,11.80
2018-12-06T22:39:17.598Z,11.40
2018-12-06T22:40:17.478Z,11.30
2018-12-06T22:42:10.136Z,10.90
2018-12-06T22:43:10.032Z,11.40
2018-12-06T22:45:02.726Z,11.40
2018-12-06T22:46:02.587Z,11.10
2018-12-06T22:47:55.256Z,11.30
2018-12-06T22:48:55.144Z,10.80
2018-12-06T22:50:47.838Z,11.30
2018-12-06T22:51:47.709Z,11.20
2018-12-06T22:53:40.377Z,10.20
2018-12-06T22:54:40.268Z,11.10
2018-12-06T22:56:32.962Z,11.40
2018-12-06T22:57:32.827Z,11.00
2018-12-06T22:59:25.498Z,10.70
